createdAt,value
2018-04-16T00:01:08.806Z,60.00
2018-04-16T00:03:37.168Z,60.00
2018-04-16T00:06:05.536Z,59.90
2018-04-16T00:08:33.863Z,59.70
2018-04-16T00:11:02.225Z,59.50
2018-04-16T00:13:31.314Z,59.60
2018-04-16T00:16:00.495Z,59.70
2018-04-16T00:18:28.811Z,59.70
2018-04-16T00:20:57.182Z,59.80
2018-04-16T00:23:26.738Z,60.00
2018-04-16T00:25:55.171Z,60.00
2018-04-16T00:28:23.460Z,59.90
2018-04-16T00:30:51.810Z,59.70
2018-04-16T00:33:26.371Z,59.50
2018-04-16T00:36:00.194Z,59.50
2018-04-16T00:38:33.847Z,59.50
2018-04-16T00:41:09.584Z,59.80
2018-04-16T00:43:43.600Z,59.80
2018-04-16T00:46:18.325Z,60.10
2018-04-16T00:48:52.889Z,60.30
2018-04-16T00:51:26.666Z,60.30
2018-04-16T00:54:18.280Z,60.40
2018-04-16T00:56:53.111Z,59.90
2018-04-16T00:59:27.865Z,60.00
2018-04-16T01:02:01.791Z,59.90
2018-04-16T01:04:35.790Z,60.00
2018-04-16T01:07:09.691Z,59.80
2018-04-16T01:09:43.450Z,60.00
2018-04-16T01:12:17.757Z,61.00
2018-04-16T01:14:51.719Z,61.10
2018-04-16T01:17:25.888Z,61.20
2018-04-16T01:19:59.965Z,61.10
2018-04-16T01:22:33.700Z,61.00
2018-04-16T01:25:07.449Z,60.90
2018-04-16T01:27:41.396Z,61.20
2018-04-16T01:30:15.421Z,61.60
2018-04-16T01:32:49.210Z,61.60
2018-04-16T01:35:22.955Z,61.60
2018-04-16T01:37:56.825Z,61.40
2018-04-16T01:40:30.490Z,61.40
2018-04-16T01:43:05.417Z,61.40
2018-04-16T01:45:39.928Z,61.60
2018-04-16T01:48:14.458Z,61.40
2018-04-16T01:50:48.950Z,61.40
2018-04-16T01:53:23.633Z,61.60
2018-04-16T01:55:57.460Z,61.60
2018-04-16T01:58:31.230Z,61.40
2018-04-16T02:01:05.046Z,61.70
2018-04-16T02:03:38.830Z,61.60
2018-04-16T02:06:14.766Z,61.60
2018-04-16T02:08:48.922Z,61.50
2018-04-16T02:11:22.927Z,62.50
2018-04-16T02:13:56.924Z,63.70
2018-04-16T02:16:31.007Z,63.40
2018-04-16T02:19:04.788Z,63.20
2018-04-16T02:21:38.724Z,63.10
2018-04-16T02:24:13.394Z,62.70
2018-04-16T02:26:47.336Z,63.10
2018-04-16T02:29:21.278Z,62.40
2018-04-16T02:31:55.941Z,62.40
2018-04-16T02:34:29.691Z,62.40
2018-04-16T02:37:04.439Z,62.30
2018-04-16T02:39:39.190Z,63.00
2018-04-16T02:42:12.975Z,63.00
2018-04-16T02:44:47.491Z,63.10
2018-04-16T02:47:21.434Z,62.90
2018-04-16T02:49:55.361Z,63.00
2018-04-16T02:52:29.127Z,63.00
2018-04-16T02:55:03.783Z,62.30
2018-04-16T03:00:45.139Z,61.80
2018-04-16T03:03:19.714Z,62.00
2018-04-16T03:05:53.766Z,62.00
2018-04-16T03:08:27.531Z,61.80
2018-04-16T03:11:01.302Z,61.20
2018-04-16T03:13:35.293Z,61.50
2018-04-16T03:16:09.753Z,61.50
2018-04-16T03:18:43.472Z,61.50
2018-04-16T03:21:17.521Z,61.40
2018-04-16T03:23:52.281Z,61.50
2018-04-16T03:29:27.823Z,61.20
2018-04-16T03:32:02.634Z,61.10
2018-04-16T03:34:36.399Z,61.20
2018-04-16T03:37:10.272Z,61.20
2018-04-16T03:39:44.894Z,60.80
2018-04-16T03:42:19.809Z,60.70
2018-04-16T03:44:53.523Z,60.70
2018-04-16T03:47:28.222Z,60.40
2018-04-16T03:50:02.215Z,60.40
2018-04-16T03:52:35.993Z,59.90
2018-04-16T03:55:04.424Z,60.80
2018-04-16T03:57:32.718Z,60.90
2018-04-16T04:00:01.801Z,60.60
2018-04-16T04:02:30.294Z,60.40
2018-04-16T04:04:58.597Z,60.10
2018-04-16T04:07:26.951Z,60.00
2018-04-16T04:09:56.113Z,60.10
2018-04-16T04:12:24.567Z,59.60
2018-04-16T04:14:52.932Z,59.30
2018-04-16T04:17:21.581Z,59.00
2018-04-16T04:19:49.969Z,59.60
2018-04-16T04:22:18.232Z,60.40
2018-04-16T04:25:04.352Z,60.60
2018-04-16T04:30:45.801Z,60.60
2018-04-16T04:33:14.282Z,60.30
2018-04-16T04:35:42.705Z,60.50
2018-04-16T04:38:11.856Z,60.90
2018-04-16T04:40:40.260Z,60.90
2018-04-16T04:43:08.713Z,60.90
2018-04-16T04:45:37.049Z,61.90
2018-04-16T04:48:06.149Z,62.30
2018-04-16T04:50:35.222Z,62.10
2018-04-16T04:53:03.551Z,62.10
2018-04-16T04:55:31.936Z,62.60
2018-04-16T04:58:00.696Z,62.00
2018-04-16T05:00:29.102Z,62.40
2018-04-16T05:02:58.592Z,61.30
2018-04-16T05:05:28.536Z,61.10
2018-04-16T05:07:58.452Z,61.60
2018-04-16T05:10:28.773Z,61.40
2018-04-16T05:12:57.070Z,61.40
2018-04-16T05:15:25.463Z,61.90
2018-04-16T05:17:54.544Z,61.20
2018-04-16T05:20:23.039Z,61.20
2018-04-16T05:22:51.372Z,60.60
2018-04-16T05:25:19.687Z,60.40
2018-04-16T05:27:48.154Z,60.70
2018-04-16T05:30:16.616Z,60.80
2018-04-16T05:32:44.972Z,61.40
2018-04-16T05:35:13.267Z,61.10
2018-04-16T05:37:41.663Z,61.00
2018-04-16T05:40:10.452Z,61.10
2018-04-16T05:42:39.828Z,60.40
2018-04-16T05:45:08.227Z,60.40
2018-04-16T05:47:36.504Z,60.60
2018-04-16T05:50:04.778Z,60.30
2018-04-16T05:52:33.102Z,60.40
2018-04-16T05:55:02.207Z,60.50
2018-04-16T05:57:31.973Z,60.70
2018-04-16T06:00:00.439Z,60.70
2018-04-16T06:02:28.846Z,60.30
2018-04-16T06:04:57.167Z,60.60
2018-04-16T06:07:25.446Z,60.50
2018-04-16T06:09:53.818Z,60.40
2018-04-16T06:12:22.139Z,60.40
2018-04-16T06:14:50.447Z,60.30
2018-04-16T06:17:19.788Z,60.80
2018-04-16T06:19:48.052Z,60.80
2018-04-16T06:22:16.719Z,60.70
2018-04-16T06:24:45.224Z,60.40
2018-04-16T06:27:13.579Z,60.30
2018-04-16T06:29:42.653Z,60.60
2018-04-16T06:32:10.959Z,60.60
2018-04-16T06:34:39.352Z,60.60
2018-04-16T06:37:07.703Z,60.40
2018-04-16T06:39:36.908Z,60.50
2018-04-16T06:42:05.399Z,60.50
2018-04-16T06:44:33.975Z,60.80
2018-04-16T06:47:02.264Z,60.20
2018-04-16T06:49:30.687Z,60.00
2018-04-16T06:51:59.196Z,59.50
2018-04-16T06:54:28.256Z,59.60
2018-04-16T06:56:56.602Z,59.50
2018-04-16T06:59:26.236Z,59.90
2018-04-16T07:01:54.606Z,59.20
2018-04-16T07:04:22.965Z,59.50
2018-04-16T07:06:51.277Z,59.50
2018-04-16T07:09:19.630Z,58.50
2018-04-16T07:11:48.020Z,58.40
2018-04-16T07:14:16.670Z,58.80
2018-04-16T07:16:45.140Z,58.30
2018-04-16T07:19:13.504Z,58.40
2018-04-16T07:21:42.550Z,57.40
2018-04-16T07:24:11.543Z,57.40
2018-04-16T07:26:39.945Z,57.40
2018-04-16T07:29:08.455Z,58.20
2018-04-16T07:31:36.983Z,57.30
2018-04-16T07:34:05.423Z,56.60
2018-04-16T07:36:33.730Z,56.10
2018-04-16T07:39:02.065Z,55.40
2018-04-16T07:41:30.344Z,55.30
2018-04-16T07:43:59.415Z,55.10
2018-04-16T07:46:27.847Z,55.00
2018-04-16T07:48:56.193Z,55.40
2018-04-16T07:51:25.371Z,55.50
2018-04-16T07:53:54.580Z,56.30
2018-04-16T07:56:22.851Z,56.20
2018-04-16T07:58:51.235Z,53.90
2018-04-16T08:01:21.503Z,53.70
2018-04-16T08:03:49.812Z,53.70
2018-04-16T08:06:18.141Z,54.20
2018-04-16T08:08:46.502Z,53.50
2018-04-16T08:11:15.700Z,53.50
2018-04-16T08:13:44.877Z,53.50
2018-04-16T08:16:13.311Z,53.50
2018-04-16T08:18:42.781Z,52.60
2018-04-16T08:21:11.872Z,52.00
2018-04-16T08:23:41.143Z,51.40
2018-04-16T08:26:09.475Z,51.30
2018-04-16T08:28:37.787Z,51.40
2018-04-16T08:31:06.113Z,51.20
2018-04-16T08:33:35.351Z,49.90
2018-04-16T08:36:05.009Z,49.90
2018-04-16T08:38:34.211Z,50.20
2018-04-16T08:41:03.647Z,50.70
2018-04-16T08:43:32.035Z,50.70
2018-04-16T08:46:00.373Z,50.20
2018-04-16T08:48:29.488Z,49.80
2018-04-16T08:50:57.807Z,49.80
2018-04-16T08:53:26.127Z,49.50
2018-04-16T08:55:55.224Z,50.60
2018-04-16T08:58:23.538Z,50.60
2018-04-16T09:00:52.008Z,49.30
2018-04-16T09:03:20.526Z,49.00
2018-04-16T09:05:48.987Z,48.10
2018-04-16T09:08:18.929Z,49.60
2018-04-16T09:10:47.273Z,49.50
2018-04-16T09:13:15.726Z,49.20
2018-04-16T09:15:44.053Z,48.40
2018-04-16T09:18:12.364Z,48.80
2018-04-16T09:20:41.677Z,49.80
2018-04-16T09:23:10.078Z,49.80
2018-04-16T09:25:38.428Z,49.90
2018-04-16T09:28:07.684Z,49.00
2018-04-16T09:30:36.011Z,49.00
2018-04-16T09:33:04.449Z,48.10
2018-04-16T09:35:32.888Z,49.10
2018-04-16T09:38:01.305Z,50.10
2018-04-16T09:40:29.638Z,49.60
2018-04-16T09:42:57.952Z,50.30
2018-04-16T09:45:26.253Z,48.90
2018-04-16T09:47:54.865Z,48.80
2018-04-16T09:50:23.342Z,48.60
2018-04-16T09:52:51.629Z,49.30
2018-04-16T09:55:19.983Z,47.60
2018-04-16T09:57:49.079Z,48.00
2018-04-16T10:00:18.331Z,47.70
2018-04-16T10:03:05.348Z,47.70
2018-04-16T10:05:33.730Z,46.50
2018-04-16T10:08:02.168Z,46.10
2018-04-16T10:10:30.680Z,45.60
2018-04-16T10:12:59.139Z,45.00
2018-04-16T10:15:27.604Z,45.90
2018-04-16T10:17:55.917Z,45.80
2018-04-16T10:20:24.244Z,45.80
2018-04-16T10:22:53.371Z,45.50
2018-04-16T10:25:21.693Z,45.50
2018-04-16T10:27:50.799Z,45.70
2018-04-16T10:30:19.300Z,45.00
2018-04-16T10:32:48.353Z,44.60
2018-04-16T10:35:16.729Z,44.70
2018-04-16T10:37:45.416Z,44.00
2018-04-16T10:40:14.376Z,43.20
2018-04-16T10:42:42.719Z,44.40
2018-04-16T10:45:11.110Z,43.00
2018-04-16T10:47:40.373Z,44.00
2018-04-16T10:50:08.697Z,44.00
2018-04-16T10:52:37.009Z,44.30
2018-04-16T10:55:05.365Z,45.60
2018-04-16T10:57:33.817Z,44.10
2018-04-16T11:02:38.189Z,43.30
2018-04-16T11:05:06.553Z,42.50
2018-04-16T11:07:36.128Z,42.20
2018-04-16T11:10:05.348Z,41.70
2018-04-16T11:12:33.699Z,41.70
2018-04-16T11:15:02.796Z,41.80
2018-04-16T11:17:31.190Z,41.70
2018-04-16T11:19:59.490Z,43.90
2018-04-16T11:22:27.874Z,45.00
2018-04-16T11:24:56.171Z,45.20
2018-04-16T11:27:24.606Z,45.30
2018-04-16T11:29:53.154Z,46.30
2018-04-16T11:32:21.471Z,45.70
2018-04-16T11:34:49.878Z,45.40
2018-04-16T11:37:18.324Z,46.90
2018-04-16T11:39:47.463Z,44.80
2018-04-16T11:42:15.765Z,44.90
2018-04-16T11:44:44.079Z,43.80
2018-04-16T11:47:13.275Z,43.90
2018-04-16T11:49:41.745Z,43.90
2018-04-16T11:52:10.980Z,43.30
2018-04-16T11:54:39.302Z,43.30
2018-04-16T11:57:07.671Z,43.10
2018-04-16T11:59:36.014Z,41.20
2018-04-16T12:02:04.309Z,38.70
2018-04-16T12:04:32.670Z,41.20
2018-04-16T12:07:00.995Z,40.80
2018-04-16T12:09:29.334Z,42.50
2018-04-16T12:11:57.720Z,42.70
2018-04-16T12:14:26.206Z,43.70
2018-04-16T12:16:54.714Z,44.10
2018-04-16T12:19:23.945Z,43.20
2018-04-16T12:21:52.265Z,43.20
2018-04-16T12:24:20.696Z,39.50
2018-04-16T12:26:49.099Z,40.80
2018-04-16T12:29:17.636Z,40.30
2018-04-16T12:31:46.799Z,39.80
2018-04-16T12:34:15.285Z,39.80
2018-04-16T12:36:43.622Z,38.20
2018-04-16T12:39:13.653Z,38.40
2018-04-16T12:41:42.049Z,38.20
2018-04-16T12:44:10.566Z,38.30
2018-04-16T12:46:39.654Z,38.20
2018-04-16T12:49:08.071Z,38.20
2018-04-16T12:51:36.406Z,38.80
2018-04-16T12:54:05.031Z,38.30
2018-04-16T12:56:33.511Z,38.30
2018-04-16T12:59:01.890Z,38.60
2018-04-16T13:01:30.257Z,38.80
2018-04-16T13:03:58.550Z,37.70
2018-04-16T13:06:27.321Z,36.80
2018-04-16T13:08:55.816Z,36.40
2018-04-16T13:11:24.151Z,36.00
2018-04-16T13:13:52.460Z,35.90
2018-04-16T13:16:20.797Z,34.70
2018-04-16T13:18:49.291Z,34.50
2018-04-16T13:21:17.785Z,34.60
2018-04-16T13:23:47.355Z,34.10
2018-04-16T13:26:15.889Z,34.00
2018-04-16T13:28:44.378Z,34.90
2018-04-16T13:31:12.712Z,35.80
2018-04-16T13:33:41.895Z,35.50
2018-04-16T13:36:11.148Z,36.60
2018-04-16T13:38:39.507Z,35.90
2018-04-16T13:41:07.832Z,34.10
2018-04-16T13:43:36.184Z,35.00
2018-04-16T13:46:04.631Z,35.00
2018-04-16T13:48:33.014Z,34.70
2018-04-16T13:51:02.180Z,35.50
2018-04-16T13:53:30.590Z,35.50
2018-04-16T13:55:59.694Z,34.50
2018-04-16T13:58:28.804Z,34.40
2018-04-16T14:00:57.121Z,34.40
2018-04-16T14:03:25.455Z,34.60
2018-04-16T14:05:53.889Z,35.30
2018-04-16T14:08:22.380Z,34.80
2018-04-16T14:10:50.735Z,34.70
2018-04-16T14:13:19.092Z,32.40
2018-04-16T14:15:47.598Z,34.10
2018-04-16T14:18:15.975Z,33.20
2018-04-16T14:20:44.384Z,31.70
2018-04-16T14:23:12.809Z,32.30
2018-04-16T14:25:41.172Z,32.60
2018-04-16T14:28:09.566Z,32.50
2018-04-16T14:30:37.906Z,32.20
2018-04-16T14:33:06.989Z,33.90
2018-04-16T14:35:35.440Z,33.90
2018-04-16T14:38:03.804Z,34.50
2018-04-16T14:40:32.424Z,35.40
2018-04-16T14:43:01.971Z,35.90
2018-04-16T14:45:30.469Z,35.90
2018-04-16T14:47:58.998Z,36.90
2018-04-16T14:50:27.368Z,36.50
2018-04-16T14:52:55.690Z,35.20
2018-04-16T14:55:24.094Z,35.70
2018-04-16T14:57:52.578Z,35.70
2018-04-16T15:00:21.359Z,35.70
2018-04-16T15:02:49.645Z,35.40
2018-04-16T15:05:18.011Z,33.50
2018-04-16T15:07:46.371Z,33.30
2018-04-16T15:10:14.838Z,33.10
2018-04-16T15:12:43.277Z,34.00
2018-04-16T15:15:11.690Z,35.20
2018-04-16T15:17:40.236Z,34.80
2018-04-16T15:20:08.605Z,34.90
2018-04-16T15:22:37.126Z,34.40
2018-04-16T15:25:05.546Z,33.50
2018-04-16T15:27:33.908Z,34.10
2018-04-16T15:30:02.356Z,32.50
2018-04-16T15:32:30.792Z,31.70
2018-04-16T15:34:59.174Z,30.30
2018-04-16T15:37:27.493Z,31.60
2018-04-16T15:39:56.030Z,30.30
2018-04-16T15:42:24.354Z,30.20
2018-04-16T15:44:52.782Z,30.80
2018-04-16T15:47:21.129Z,31.80
2018-04-16T15:49:49.795Z,33.80
2018-04-16T15:52:18.265Z,34.30
2018-04-16T15:54:46.630Z,34.50
2018-04-16T15:57:15.033Z,34.40
2018-04-16T15:59:43.325Z,32.50
2018-04-16T16:02:12.521Z,29.70
2018-04-16T16:04:41.634Z,28.90
2018-04-16T16:07:11.129Z,28.90
2018-04-16T16:09:40.239Z,29.80
2018-04-16T16:12:08.684Z,29.70
2018-04-16T16:14:37.864Z,32.40
2018-04-16T16:17:06.231Z,32.40
2018-04-16T16:19:34.575Z,32.40
2018-04-16T16:22:03.077Z,33.70
2018-04-16T16:24:31.568Z,34.60
2018-04-16T16:26:59.849Z,34.80
2018-04-16T16:29:28.500Z,33.00
2018-04-16T16:31:57.113Z,31.90
2018-04-16T16:34:25.702Z,31.60
2018-04-16T16:36:54.053Z,31.40
2018-04-16T16:39:22.547Z,30.00
2018-04-16T16:41:51.176Z,29.00
2018-04-16T16:44:20.457Z,29.60
2018-04-16T16:46:48.804Z,29.60
2018-04-16T16:49:17.095Z,28.50
2018-04-16T16:51:45.584Z,29.60
2018-04-16T16:54:14.640Z,28.20
2018-04-16T16:56:43.687Z,28.90
2018-04-16T16:59:12.114Z,32.20
2018-04-16T17:01:40.479Z,30.90
2018-04-16T17:04:09.024Z,32.30
2018-04-16T17:06:37.432Z,33.80
2018-04-16T17:09:07.757Z,34.90
2018-04-16T17:11:37.235Z,34.10
2018-04-16T17:14:06.263Z,33.90
2018-04-16T17:16:34.788Z,33.70
2018-04-16T17:19:03.924Z,34.70
2018-04-16T17:21:33.294Z,35.10
2018-04-16T17:24:02.443Z,35.20
2018-04-16T17:26:30.814Z,35.20
2018-04-16T17:29:00.074Z,38.10
2018-04-16T17:31:28.717Z,38.00
2018-04-16T17:33:57.119Z,35.70
2018-04-16T17:36:26.310Z,35.60
2018-04-16T17:38:54.853Z,35.60
2018-04-16T17:41:23.256Z,35.50
2018-04-16T17:43:51.760Z,37.40
2018-04-16T17:46:20.197Z,34.30
2018-04-16T17:48:48.566Z,37.30
2018-04-16T17:51:17.732Z,34.80
2018-04-16T17:53:46.276Z,34.70
2018-04-16T17:56:14.861Z,36.40
2018-04-16T17:58:43.364Z,35.70
2018-04-16T18:01:11.842Z,35.70
2018-04-16T18:03:40.299Z,37.10
2018-04-16T18:06:08.946Z,34.40
2018-04-16T18:08:38.092Z,37.30
2018-04-16T18:11:06.589Z,37.20
2018-04-16T18:13:35.148Z,37.70
2018-04-16T18:16:04.835Z,37.10
2018-04-16T18:18:33.356Z,35.10
2018-04-16T18:21:01.726Z,36.70
2018-04-16T18:23:30.411Z,37.10
2018-04-16T18:25:59.099Z,36.00
2018-04-16T18:28:27.497Z,37.30
2018-04-16T18:30:55.958Z,37.50
2018-04-16T18:33:24.408Z,36.20
2018-04-16T18:35:52.795Z,36.80
2018-04-16T18:38:21.211Z,37.40
2018-04-16T18:40:49.674Z,36.20
2018-04-16T18:43:18.077Z,35.40
2018-04-16T18:45:46.571Z,35.80
2018-04-16T18:48:15.047Z,35.80
2018-04-16T18:50:43.534Z,36.70
2018-04-16T18:53:11.898Z,37.80
2018-04-16T18:55:40.238Z,38.80
2018-04-16T18:58:08.762Z,39.10
2018-04-16T19:00:37.130Z,38.90
2018-04-16T19:03:05.681Z,39.20
2018-04-16T19:05:34.036Z,40.20
2018-04-16T19:08:03.124Z,40.30
2018-04-16T19:10:32.363Z,41.10
2018-04-16T19:13:00.820Z,41.10
2018-04-16T19:15:30.117Z,41.60
2018-04-16T19:17:58.532Z,41.60
2018-04-16T19:20:33.480Z,41.10
2018-04-16T19:23:01.987Z,41.00
2018-04-16T19:25:31.186Z,41.30
2018-04-16T19:28:05.949Z,42.40
2018-04-16T19:30:34.857Z,42.40
2018-04-16T19:33:08.694Z,42.30
2018-04-16T19:35:37.173Z,42.30
2018-04-16T19:38:05.606Z,42.60
2018-04-16T19:40:35.065Z,42.70
2018-04-16T19:43:06.212Z,42.90
2018-04-16T19:45:36.225Z,43.20
2018-04-16T19:48:05.435Z,42.60
2018-04-16T19:50:35.831Z,43.30
2018-04-16T19:53:05.392Z,43.30
2018-04-16T19:55:39.419Z,44.70
2018-04-16T19:58:13.402Z,44.80
2018-04-16T20:00:42.729Z,44.50
2018-04-16T20:03:16.677Z,44.50
2018-04-16T20:05:45.199Z,45.10
2018-04-16T20:08:14.369Z,45.30
2018-04-16T20:10:42.914Z,45.30
2018-04-16T20:13:11.310Z,45.50
2018-04-16T20:15:39.675Z,45.60
2018-04-16T20:18:08.243Z,45.90
2018-04-16T20:20:36.683Z,45.90
2018-04-16T20:23:06.970Z,46.00
2018-04-16T20:25:36.341Z,45.90
2018-04-16T20:28:04.774Z,46.00
2018-04-16T20:30:33.950Z,45.60
2018-04-16T20:33:02.500Z,45.60
2018-04-16T20:35:30.887Z,46.40
2018-04-16T20:37:59.601Z,48.40
2018-04-16T20:40:28.034Z,49.10
2018-04-16T20:42:56.605Z,49.10
2018-04-16T20:45:25.766Z,48.70
2018-04-16T20:47:54.170Z,48.70
2018-04-16T20:50:23.386Z,48.80
2018-04-16T20:52:51.755Z,48.70
2018-04-16T20:55:20.986Z,48.70
2018-04-16T20:57:49.302Z,48.70
2018-04-16T21:00:17.616Z,48.50
2018-04-16T21:02:46.105Z,48.50
2018-04-16T21:05:14.690Z,48.30
2018-04-16T21:07:43.087Z,48.50
2018-04-16T21:10:11.456Z,48.60
2018-04-16T21:12:39.869Z,48.70
2018-04-16T21:15:08.191Z,48.40
2018-04-16T21:17:37.277Z,48.50
2018-04-16T21:20:06.444Z,48.40
2018-04-16T21:22:34.791Z,48.20
2018-04-16T21:25:03.378Z,49.30
2018-04-16T21:27:31.723Z,49.70
2018-04-16T21:30:01.016Z,50.90
2018-04-16T21:32:30.339Z,50.90
2018-04-16T21:34:58.707Z,50.40
2018-04-16T21:37:26.994Z,50.30
2018-04-16T21:39:55.303Z,50.30
2018-04-16T21:42:23.761Z,50.30
2018-04-16T21:44:52.123Z,50.10
2018-04-16T21:47:20.740Z,50.00
2018-04-16T21:49:49.045Z,50.10
2018-04-16T21:52:17.447Z,50.00
2018-04-16T21:54:46.635Z,50.30
2018-04-16T21:57:15.709Z,50.50
2018-04-16T21:59:44.041Z,50.40
2018-04-16T22:02:12.397Z,51.20
2018-04-16T22:04:42.632Z,51.50
2018-04-16T22:07:10.935Z,51.50
2018-04-16T22:09:39.312Z,51.80
2018-04-16T22:12:07.620Z,51.70
2018-04-16T22:14:35.925Z,51.30
2018-04-16T22:17:04.595Z,51.20
2018-04-16T22:19:32.942Z,51.10
2018-04-16T22:22:01.348Z,51.30
2018-04-16T22:24:29.691Z,51.10
2018-04-16T22:26:58.005Z,51.90
2018-04-16T22:29:26.432Z,51.40
2018-04-16T22:31:54.895Z,51.80
2018-04-16T22:34:25.158Z,53.10
2018-04-16T22:36:53.452Z,53.10
2018-04-16T22:39:21.917Z,53.00
2018-04-16T22:41:50.477Z,52.60
2018-04-16T22:44:18.807Z,52.60
2018-04-16T22:46:48.030Z,52.00
2018-04-16T22:49:16.401Z,52.20
2018-04-16T22:51:45.855Z,52.10
2018-04-16T22:54:14.184Z,52.10
2018-04-16T22:56:43.360Z,52.10
2018-04-16T22:59:11.848Z,52.20
2018-04-16T23:01:40.378Z,53.50
2018-04-16T23:04:08.721Z,52.90
2018-04-16T23:06:37.957Z,52.50
2018-04-16T23:09:07.456Z,52.50
2018-04-16T23:11:35.739Z,52.70
2018-04-16T23:14:04.158Z,52.30
2018-04-16T23:16:33.288Z,52.10
2018-04-16T23:19:01.615Z,52.60
2018-04-16T23:21:29.944Z,53.80
2018-04-16T23:23:58.419Z,55.40
2018-04-16T23:26:26.714Z,55.40
2018-04-16T23:28:55.094Z,54.50
2018-04-16T23:31:23.494Z,54.30
2018-04-16T23:33:51.902Z,53.70
2018-04-16T23:36:20.270Z,53.60
2018-04-16T23:38:49.506Z,54.30
2018-04-16T23:41:17.856Z,54.30
2018-04-16T23:43:46.157Z,53.90
2018-04-16T23:46:14.628Z,54.50
2018-04-16T23:48:43.816Z,54.30
2018-04-16T23:51:13.125Z,53.70
2018-04-16T23:53:42.235Z,53.60
2018-04-16T23:56:11.285Z,53.80
2018-04-16T23:58:39.709Z,53.80
